createdAt,value
2023-03-24T00:01:59.078Z,50.05
2023-03-24T00:05:04.468Z,54.53
2023-03-24T00:08:10.186Z,57.35
2023-03-24T00:11:15.904Z,56.50
2023-03-24T00:14:19.825Z,55.65
2023-03-24T00:17:25.984Z,55.78
2023-03-24T00:20:30.318Z,47.88
2023-03-24T00:23:35.116Z,45.72
2023-03-24T00:26:41.187Z,42.03
2023-03-24T00:29:45.379Z,37.42
2023-03-24T00:32:50.412Z,34.60
2023-03-24T00:35:54.756Z,25.38
2023-03-24T00:38:58.984Z,24.55
2023-03-24T00:42:04.162Z,18.00
2023-03-24T00:45:11.156Z,21.70
2023-03-24T00:48:18.855Z,23.40
2023-03-24T00:51:24.519Z,23.98
2023-03-24T00:54:34.253Z,21.45
2023-03-24T00:57:42.125Z,21.70
2023-03-24T01:00:48.289Z,20.30
2023-03-24T01:03:53.751Z,26.00
2023-03-24T01:06:59.183Z,29.10
2023-03-24T01:10:04.245Z,30.67
2023-03-24T01:13:09.664Z,35.55
2023-03-24T01:16:14.930Z,32.10
2023-03-24T01:19:43.849Z,30.63
2023-03-24T01:22:50.882Z,32.50
2023-03-24T01:25:55.446Z,29.95
2023-03-24T01:28:59.785Z,23.50
2023-03-24T01:32:03.609Z,29.02
2023-03-24T01:35:08.283Z,18.70
2023-03-24T01:38:13.973Z,17.88
2023-03-24T01:41:17.730Z,17.20
2023-03-24T01:44:29.729Z,17.90
2023-03-24T01:47:35.200Z,15.40
2023-03-24T01:50:39.329Z,7.55
2023-03-24T01:53:59.141Z,9.07
2023-03-24T01:57:08.902Z,10.15
2023-03-24T02:00:16.687Z,9.77
2023-03-24T02:03:45.236Z,7.82
2023-03-24T02:06:49.653Z,13.93
2023-03-24T02:09:53.739Z,10.60
2023-03-24T02:12:57.680Z,13.98
2023-03-24T02:16:17.235Z,11.40
2023-03-24T02:19:45.437Z,5.65
2023-03-24T02:22:52.331Z,7.45
2023-03-24T02:26:27.043Z,7.25
2023-03-24T02:29:48.656Z,8.68
2023-03-24T02:33:26.335Z,7.90
2023-03-24T02:36:55.566Z,5.93
2023-03-24T02:40:08.901Z,6.97
2023-03-24T02:43:27.885Z,6.38
2023-03-24T02:46:52.151Z,6.18
2023-03-24T02:50:36.266Z,5.80
2023-03-24T02:53:53.254Z,3.25
2023-03-24T02:57:17.454Z,4.20
2023-03-24T03:01:00.086Z,4.38
2023-03-24T03:04:23.453Z,3.13
2023-03-24T03:07:30.867Z,3.88
2023-03-24T03:10:39.330Z,5.05
2023-03-24T03:14:25.131Z,5.43
2023-03-24T03:17:45.555Z,4.70
2023-03-24T03:20:53.736Z,5.68
2023-03-24T03:24:20.793Z,5.38
2023-03-24T03:27:39.588Z,5.03
2023-03-24T03:30:47.694Z,4.50
2023-03-24T03:37:47.264Z,3.83
2023-03-24T03:40:52.557Z,4.70
2023-03-24T03:43:59.321Z,4.55
2023-03-24T03:47:03.468Z,5.45
2023-03-24T03:50:16.501Z,5.47
2023-03-24T03:53:24.434Z,3.40
2023-03-24T03:56:30.139Z,4.55
2023-03-24T03:59:52.578Z,5.13
2023-03-24T04:03:14.812Z,4.80
2023-03-24T04:06:45.115Z,4.78
2023-03-24T04:10:10.863Z,4.78
2023-03-24T04:14:03.385Z,4.75
2023-03-24T04:17:42.193Z,5.53
2023-03-24T04:20:59.218Z,3.58
2023-03-24T04:24:30.579Z,3.45
2023-03-24T04:27:46.858Z,3.30
2023-03-24T04:30:58.911Z,3.03
2023-03-24T04:34:10.057Z,5.43
2023-03-24T04:37:25.601Z,3.33
2023-03-24T04:40:47.248Z,3.42
2023-03-24T04:43:51.976Z,3.25
2023-03-24T04:46:58.985Z,3.10
2023-03-24T04:50:11.826Z,4.30
2023-03-24T04:53:15.475Z,4.55
2023-03-24T04:56:34.706Z,6.03
2023-03-24T04:59:45.464Z,5.72
2023-03-24T05:02:52.740Z,4.90
2023-03-24T05:06:02.532Z,4.05
2023-03-24T05:09:05.547Z,3.60
2023-03-24T05:12:09.654Z,3.50
2023-03-24T05:15:32.773Z,5.20
2023-03-24T05:18:53.228Z,4.35
2023-03-24T05:22:06.132Z,6.20
2023-03-24T05:25:10.717Z,4.47
2023-03-24T05:28:14.435Z,4.97
2023-03-24T05:31:18.991Z,6.25
2023-03-24T05:34:32.744Z,4.68
2023-03-24T05:37:46.935Z,8.70
2023-03-24T05:40:52.556Z,6.65
2023-03-24T05:43:56.910Z,7.63
2023-03-24T05:47:00.526Z,4.88
2023-03-24T05:50:05.195Z,7.20
2023-03-24T05:53:09.335Z,4.80
2023-03-24T05:56:38.736Z,6.07
2023-03-24T05:59:42.533Z,8.18
2023-03-24T06:03:14.963Z,8.68
2023-03-24T06:06:23.808Z,8.63
2023-03-24T06:09:33.648Z,7.25
2023-03-24T06:12:37.973Z,7.53
2023-03-24T06:15:43.877Z,8.55
2023-03-24T06:19:08.134Z,7.32
2023-03-24T06:22:39.473Z,9.98
2023-03-24T06:25:48.037Z,8.57
2023-03-24T06:28:59.932Z,9.27
2023-03-24T06:32:08.576Z,10.57
2023-03-24T06:35:18.446Z,7.80
2023-03-24T06:38:30.643Z,7.15
2023-03-24T06:41:36.144Z,4.65
2023-03-24T06:44:39.492Z,6.07
2023-03-24T06:47:43.950Z,5.53
2023-03-24T06:50:47.787Z,6.40
2023-03-24T06:53:52.935Z,5.43
2023-03-24T06:56:58.873Z,5.82
2023-03-24T07:00:11.210Z,6.95
2023-03-24T07:03:27.118Z,5.35
2023-03-24T07:10:02.829Z,6.25
2023-03-24T07:13:09.242Z,6.03
2023-03-24T07:16:14.731Z,6.50
2023-03-24T07:19:19.282Z,5.22
2023-03-24T07:22:29.268Z,3.35
2023-03-24T07:26:08.379Z,3.80
2023-03-24T07:29:12.998Z,4.30
2023-03-24T07:32:35.436Z,5.00
2023-03-24T07:35:44.046Z,4.43
2023-03-24T07:38:48.626Z,4.78
2023-03-24T07:42:00.390Z,6.05
2023-03-24T07:45:27.122Z,4.27
2023-03-24T07:50:41.132Z,4.50
2023-03-24T07:54:07.470Z,3.63
2023-03-24T07:57:16.085Z,5.13
2023-03-24T08:00:25.475Z,2.90
2023-03-24T08:03:42.914Z,3.65
2023-03-24T08:07:05.832Z,3.33
2023-03-24T08:10:10.862Z,3.92
2023-03-24T08:13:13.848Z,2.92
2023-03-24T08:16:17.779Z,3.15
2023-03-24T08:19:21.759Z,3.70
2023-03-24T08:22:25.692Z,3.58
2023-03-24T08:25:29.398Z,3.88
2023-03-24T08:28:33.588Z,4.13
2023-03-24T08:31:38.173Z,4.25
2023-03-24T08:34:41.186Z,5.50
2023-03-24T08:37:46.042Z,4.72
2023-03-24T08:40:50.763Z,5.70
2023-03-24T08:43:54.786Z,7.00
2023-03-24T08:46:58.557Z,5.07
2023-03-24T08:50:02.233Z,5.72
2023-03-24T08:53:05.735Z,5.32
2023-03-24T08:56:09.338Z,6.10
2023-03-24T08:59:13.003Z,6.50
2023-03-24T09:02:26.835Z,7.22
2023-03-24T09:05:43.348Z,6.97
2023-03-24T09:08:48.109Z,8.32
2023-03-24T09:11:51.750Z,9.02
2023-03-24T09:14:55.829Z,8.20
2023-03-24T09:17:59.563Z,9.27
2023-03-24T09:21:03.639Z,13.70
2023-03-24T09:24:07.552Z,9.05
2023-03-24T09:27:12.051Z,9.68
2023-03-24T09:30:18.270Z,6.65
2023-03-24T09:33:22.257Z,8.15
2023-03-24T09:36:25.247Z,7.78
2023-03-24T09:39:29.033Z,9.45
2023-03-24T09:42:41.631Z,8.18
2023-03-24T09:46:09.792Z,8.40
2023-03-24T09:49:25.853Z,9.93
2023-03-24T09:52:36.624Z,12.80
2023-03-24T09:55:41.620Z,13.90
2023-03-24T09:58:50.972Z,19.00
2023-03-24T10:01:54.896Z,15.80
2023-03-24T10:05:00.502Z,19.50
2023-03-24T10:08:18.121Z,12.93
2023-03-24T10:11:38.678Z,16.08
2023-03-24T10:14:48.701Z,13.32
2023-03-24T10:18:03.151Z,15.27
2023-03-24T10:21:17.217Z,16.48
2023-03-24T10:24:49.274Z,18.48
2023-03-24T10:27:55.100Z,13.50
2023-03-24T10:31:04.099Z,12.43
2023-03-24T10:34:11.436Z,10.32
2023-03-24T10:37:17.351Z,9.32
2023-03-24T10:40:23.955Z,9.80
2023-03-24T10:43:29.453Z,10.35
2023-03-24T10:46:32.971Z,11.30
2023-03-24T10:49:36.038Z,9.20
2023-03-24T10:52:41.537Z,9.40
2023-03-24T10:55:45.578Z,7.85
2023-03-24T10:58:48.951Z,10.98
2023-03-24T11:02:19.972Z,10.52
2023-03-24T11:05:30.176Z,12.38
2023-03-24T11:08:40.761Z,14.82
2023-03-24T11:11:43.663Z,14.90
2023-03-24T11:14:47.201Z,15.82
2023-03-24T11:17:58.233Z,13.18
2023-03-24T11:21:07.180Z,13.98
2023-03-24T11:24:18.140Z,22.88
2023-03-24T11:27:22.724Z,21.25
2023-03-24T11:30:33.862Z,20.17
2023-03-24T11:33:49.413Z,23.00
2023-03-24T11:37:04.818Z,18.27
2023-03-24T11:40:16.335Z,23.27
2023-03-24T11:43:22.966Z,17.85
2023-03-24T11:46:27.569Z,18.27
2023-03-24T11:49:40.937Z,18.98
2023-03-24T11:52:49.241Z,18.88
2023-03-24T11:56:01.760Z,15.63
2023-03-24T11:59:41.178Z,16.65
2023-03-24T12:03:12.790Z,16.58
2023-03-24T12:06:48.660Z,18.15
2023-03-24T12:09:52.712Z,21.85
2023-03-24T12:13:29.505Z,16.05
2023-03-24T12:16:54.439Z,16.73
2023-03-24T12:20:30.909Z,15.02
2023-03-24T12:23:36.772Z,14.20
2023-03-24T12:26:42.215Z,12.35
2023-03-24T12:30:03.150Z,12.70
2023-03-24T12:33:16.307Z,22.17
2023-03-24T12:36:37.764Z,37.35
2023-03-24T12:40:03.317Z,40.63
2023-03-24T12:43:09.773Z,65.53
2023-03-24T12:46:47.849Z,57.05
2023-03-24T12:50:19.715Z,47.15
2023-03-24T12:53:54.627Z,39.35
2023-03-24T12:57:03.128Z,31.60
2023-03-24T13:00:20.064Z,36.53
2023-03-24T13:03:32.023Z,33.90
2023-03-24T13:06:48.105Z,32.03
2023-03-24T13:10:07.822Z,33.28
2023-03-24T13:13:20.808Z,29.75
2023-03-24T13:16:31.219Z,31.67
2023-03-24T13:19:38.281Z,25.48
2023-03-24T13:22:42.131Z,30.33
2023-03-24T13:26:05.426Z,26.25
2023-03-24T13:29:48.472Z,30.17
2023-03-24T13:33:18.526Z,31.45
2023-03-24T13:36:39.504Z,26.17
2023-03-24T13:39:45.065Z,25.58
2023-03-24T13:42:54.823Z,17.48
2023-03-24T13:46:05.734Z,23.50
2023-03-24T13:49:14.856Z,24.10
2023-03-24T13:52:33.725Z,21.15
2023-03-24T13:55:40.583Z,21.88
2023-03-24T13:59:02.163Z,20.65
2023-03-24T14:02:56.028Z,16.67
2023-03-24T14:06:06.935Z,15.18
2023-03-24T14:09:22.975Z,13.68
2023-03-24T14:12:27.613Z,13.48
2023-03-24T14:15:36.529Z,13.77
2023-03-24T14:18:41.951Z,13.93
2023-03-24T14:21:46.696Z,12.13
2023-03-24T14:25:07.502Z,11.20
2023-03-24T14:28:30.007Z,10.90
2023-03-24T14:31:36.760Z,12.35
2023-03-24T14:34:50.787Z,12.10
2023-03-24T14:37:59.372Z,10.77
2023-03-24T14:41:08.532Z,11.38
2023-03-24T14:44:12.206Z,11.70
2023-03-24T14:47:22.324Z,10.35
2023-03-24T14:50:27.555Z,13.13
2023-03-24T14:53:31.604Z,13.82
2023-03-24T14:56:40.497Z,12.18
2023-03-24T14:59:56.580Z,13.43
2023-03-24T15:03:11.959Z,12.18
2023-03-24T15:06:18.408Z,14.35
2023-03-24T15:09:21.546Z,11.70
2023-03-24T15:12:26.002Z,13.45
2023-03-24T15:15:29.759Z,12.60
2023-03-24T15:18:36.714Z,12.32
2023-03-24T15:21:51.760Z,12.07
2023-03-24T15:25:01.010Z,12.13
2023-03-24T15:28:19.516Z,16.23
2023-03-24T15:31:31.893Z,16.65
2023-03-24T15:34:41.502Z,15.25
2023-03-24T15:37:52.163Z,12.82
2023-03-24T15:41:09.105Z,12.48
2023-03-24T15:44:20.421Z,13.43
2023-03-24T15:47:25.590Z,11.90
2023-03-24T15:50:33.526Z,14.80
2023-03-24T15:53:45.667Z,15.35
2023-03-24T15:57:13.851Z,15.43
2023-03-24T16:00:25.517Z,15.40
2023-03-24T16:03:32.682Z,14.13
2023-03-24T16:06:37.658Z,14.67
2023-03-24T16:09:42.157Z,15.45
2023-03-24T16:12:46.172Z,15.02
2023-03-24T16:16:08.254Z,15.93
2023-03-24T16:19:12.820Z,13.52
2023-03-24T16:22:17.718Z,14.48
2023-03-24T16:25:21.934Z,17.05
2023-03-24T16:28:26.661Z,15.75
2023-03-24T16:31:34.318Z,15.20
2023-03-24T16:34:39.112Z,12.48
2023-03-24T16:37:43.766Z,11.50
2023-03-24T16:40:51.842Z,11.52
2023-03-24T16:43:56.517Z,13.60
2023-03-24T16:47:01.544Z,9.95
2023-03-24T16:50:24.502Z,13.75
2023-03-24T16:53:29.865Z,16.05
2023-03-24T16:56:34.423Z,13.82
2023-03-24T16:59:39.401Z,9.45
2023-03-24T17:02:46.533Z,9.60
2023-03-24T17:05:52.582Z,9.65
2023-03-24T17:08:57.277Z,10.15
2023-03-24T17:12:03.138Z,8.65
2023-03-24T17:15:08.976Z,10.18
2023-03-24T17:18:13.422Z,6.85
2023-03-24T17:21:19.675Z,7.65
2023-03-24T17:24:25.068Z,8.20
2023-03-24T17:27:29.823Z,8.07
2023-03-24T17:30:33.588Z,6.78
2023-03-24T17:33:38.211Z,6.93
2023-03-24T17:36:42.321Z,6.95
2023-03-24T17:39:46.980Z,9.00
2023-03-24T17:42:51.348Z,7.95
2023-03-24T17:46:00.726Z,5.63
2023-03-24T17:49:05.347Z,7.47
2023-03-24T17:52:10.077Z,7.45
2023-03-24T17:55:16.333Z,8.82
2023-03-24T17:58:22.608Z,9.70
2023-03-24T18:01:30.203Z,7.20
2023-03-24T18:07:42.859Z,6.93
2023-03-24T18:10:47.531Z,7.28
2023-03-24T18:13:51.381Z,6.60
2023-03-24T18:16:56.470Z,7.53
2023-03-24T18:20:11.250Z,8.10
2023-03-24T18:23:17.246Z,6.50
2023-03-24T18:26:23.164Z,7.80
2023-03-24T18:29:27.681Z,8.90
2023-03-24T18:32:34.474Z,9.35
2023-03-24T18:35:38.200Z,8.20
2023-03-24T18:38:42.450Z,8.95
2023-03-24T18:41:49.092Z,10.43
2023-03-24T18:44:53.055Z,9.38
2023-03-24T18:47:57.593Z,11.95
2023-03-24T18:51:01.595Z,11.48
2023-03-24T18:54:06.910Z,8.95
2023-03-24T18:57:12.236Z,8.23
2023-03-24T19:00:16.744Z,7.60
2023-03-24T19:03:23.098Z,7.85
2023-03-24T19:06:31.861Z,7.60
2023-03-24T19:09:35.904Z,8.40
2023-03-24T19:12:40.514Z,7.90
2023-03-24T19:15:48.979Z,8.27
2023-03-24T19:18:53.850Z,7.50
2023-03-24T19:21:59.025Z,7.97
2023-03-24T19:25:03.572Z,9.88
2023-03-24T19:28:08.365Z,9.00
2023-03-24T19:31:16.068Z,7.70
2023-03-24T19:37:25.163Z,6.65
2023-03-24T19:40:29.694Z,6.35
2023-03-24T19:43:35.664Z,6.72
2023-03-24T19:46:40.397Z,4.97
2023-03-24T19:49:44.947Z,4.63
2023-03-24T19:52:48.896Z,5.15
2023-03-24T19:55:53.307Z,7.15
2023-03-24T19:58:57.441Z,6.13
2023-03-24T20:02:02.355Z,6.82
2023-03-24T20:05:08.258Z,6.13
2023-03-24T20:08:13.353Z,6.45
2023-03-24T20:11:17.121Z,6.78
2023-03-24T20:14:21.916Z,5.07
2023-03-24T20:17:29.191Z,6.47
2023-03-24T20:20:33.808Z,7.15
2023-03-24T20:23:37.661Z,8.40
2023-03-24T20:26:43.020Z,7.90
2023-03-24T20:29:46.990Z,6.30
2023-03-24T20:32:51.319Z,8.05
2023-03-24T20:35:58.271Z,8.32
2023-03-24T20:39:03.510Z,8.45
2023-03-24T20:42:06.921Z,9.93
2023-03-24T20:45:12.813Z,5.07
2023-03-24T20:48:17.103Z,6.68
2023-03-24T20:51:21.221Z,5.88
2023-03-24T20:54:24.961Z,6.15
2023-03-24T20:57:30.914Z,6.40
2023-03-24T21:00:34.591Z,4.95
2023-03-24T21:03:38.218Z,4.53
2023-03-24T21:06:42.322Z,6.03
2023-03-24T21:09:46.194Z,6.25
2023-03-24T21:12:53.303Z,6.15
2023-03-24T21:15:58.755Z,6.40
2023-03-24T21:19:04.767Z,6.55
2023-03-24T21:22:15.485Z,6.28
2023-03-24T21:25:20.256Z,4.82
2023-03-24T21:28:28.582Z,5.65
2023-03-24T21:31:32.038Z,5.38
2023-03-24T21:34:36.196Z,4.55
2023-03-24T21:37:46.399Z,3.13
2023-03-24T21:40:57.560Z,5.20
2023-03-24T21:44:01.113Z,5.65
2023-03-24T21:47:04.832Z,5.13
2023-03-24T21:50:09.896Z,5.70
2023-03-24T21:53:16.555Z,4.00
2023-03-24T21:56:21.013Z,4.78
2023-03-24T21:59:24.878Z,5.18
2023-03-24T22:02:30.985Z,5.22
2023-03-24T22:05:34.649Z,4.95
2023-03-24T22:08:40.111Z,5.43
2023-03-24T22:11:43.609Z,3.95
2023-03-24T22:14:47.929Z,8.50
2023-03-24T22:17:52.157Z,5.65
2023-03-24T22:20:58.112Z,5.32
2023-03-24T22:24:02.487Z,11.53
2023-03-24T22:27:06.830Z,20.30
2023-03-24T22:30:13.511Z,21.42
2023-03-24T22:33:18.373Z,18.55
2023-03-24T22:36:23.010Z,9.85
2023-03-24T22:39:28.332Z,9.45
2023-03-24T22:42:32.514Z,5.55
2023-03-24T22:45:36.908Z,10.88
2023-03-24T22:48:41.408Z,10.90
2023-03-24T22:51:45.064Z,8.57
2023-03-24T22:54:49.212Z,10.77
2023-03-24T22:57:52.841Z,8.50
2023-03-24T23:00:57.813Z,6.38
2023-03-24T23:04:01.736Z,11.82
2023-03-24T23:07:07.206Z,17.90
2023-03-24T23:10:13.828Z,24.38
2023-03-24T23:13:17.740Z,14.97
2023-03-24T23:16:22.449Z,14.18
2023-03-24T23:19:26.670Z,18.35
2023-03-24T23:22:30.891Z,30.50
2023-03-24T23:25:40.599Z,31.38
2023-03-24T23:28:45.636Z,28.88
2023-03-24T23:31:49.560Z,21.10
2023-03-24T23:34:54.366Z,15.70
2023-03-24T23:37:58.327Z,17.90
2023-03-24T23:41:03.640Z,19.52
2023-03-24T23:44:07.080Z,19.30
2023-03-24T23:47:11.461Z,16.90
2023-03-24T23:50:15.621Z,15.10
2023-03-24T23:53:19.580Z,25.45
2023-03-24T23:56:23.529Z,24.10
2023-03-24T23:59:28.284Z,20.27
